deformed-offering

Nearby METAR Reports

 

KSJC - San Jose, California, USA
Distance from station: NE 9mi, 14km
Updated: Fri, 03-Jul-2020 11:53am PDT
Clear
Clear
 Wind from WNW
Wind: WNW 3 mph , 6 km/h
Temperature: 75°F , 24°C
Dew Point: 48°F , 9°C
Humidity: 39%
Barometer: 30.01 inHg , 1016.3 hPa
Clouds: Clear
Visibility: 10 miles , 16 km
2020/07/03 18:53 KSJC 031853Z 29003KT 10SM CLR 24/09 A3001 RMK AO2 SLP162 T02390089
KRHV - San Jose/Reid, California, USA
Distance from station: ENE 12mi, 19km
Updated: Fri, 03-Jul-2020 9:47am PDT
NOT Current
Clear
Clear
 Wind from calm
Wind: Calm
Temperature: 64°F , 18°C
Dew Point: 52°F , 11°C
Humidity: 64%
Barometer: 30.03 inHg , 1016.9 hPa
Clouds: Clear
Visibility: 10 miles , 16 km
2020/07/03 16:47 KRHV 031647Z 00000KT 10SM SKC 18/11 A3003
 
KPAO - Palo Alto, California, USA
Distance from station: NNW 14mi, 23km
Updated: Fri, 03-Jul-2020 11:47am PDT
Clear
Clear
 Wind from N
Wind: N 7 mph , 11 km/h
Temperature: 66°F , 19°C
Dew Point: 55°F , 13°C
Humidity: 68%
Barometer: 30.03 inHg , 1016.9 hPa
Clouds: Clear
Visibility: 10 miles , 16 km
2020/07/03 18:47 KPAO 031847Z 01006KT 10SM SKC 19/13 A3003
KSQL - San Carlos Airpo, California, USA
Distance from station: NW 21mi, 34km
Updated: Fri, 03-Jul-2020 11:47am PDT
Clear
Clear
 Wind from N
Wind: N 9 mph , 15 km/h
Temperature: 64°F , 18°C
Dew Point: 55°F , 13°C
Humidity: 73%
Barometer: 30.04 inHg , 1017.3 hPa
Clouds: Clear
Visibility: 10 miles , 16 km
2020/07/03 18:47 KSQL 031847Z 36008KT 10SM SKC 18/13 A3004
 
KWVI - Watsonville, California, USA
Distance from station: SSE 27mi, 44km
Updated: Fri, 03-Jul-2020 11:53am PDT
Clear
Clear
 Wind from W
Wind: W 8 mph , 13 km/h
Temperature: 68°F , 20°C
Dew Point: 54°F , 12°C
Humidity: 60%
Barometer: 30.05 inHg , 1017.6 hPa
Clouds: Clear
Visibility: 10 miles , 16 km
2020/07/03 18:53 KWVI 031853Z AUTO 26007KT 10SM CLR 20/12 A3005 RMK AO2 SLP176 T02000122
KHWD - Hayward, California, USA
Distance from station: N 28mi, 44km
Updated: Fri, 03-Jul-2020 11:54am PDT
Clear
Clear
 Wind from W
Wind: W 10 mph , 17 km/h
Temperature: 68°F , 20°C
Dew Point: 52°F , 11°C
Humidity: 56%
Barometer: 30.03 inHg , 1016.9 hPa
Clouds: Clear
Visibility: 10 miles , 16 km
2020/07/03 18:54 KHWD 031854Z 28009KT 10SM CLR 20/11 A3003 RMK AO2 SLP179 T02000111
 
KSFO - San Francisco, California, USA
Distance from station: NW 30mi, 49km
Updated: Fri, 03-Jul-2020 11:56am PDT
Few Clouds
Few Clouds
 Wind from NNW
Wind: NNW 15 mph , 24 km/h
Temperature: 64°F , 18°C
Dew Point: 52°F , 11°C
Humidity: 64%
Barometer: 30.03 inHg , 1016.9 hPa
Clouds: Few Clouds
Visibility: 9 miles , 14 km
Cloud details: Few Clouds 500 ft
2020/07/03 18:56 KSFO 031856Z 33013KT 9SM FEW005 18/11 A3003 RMK AO2 SLP170 T01780111
KHAF - Half Moon Bay, California, USA
Distance from station: WNW 31mi, 50km
Updated: Fri, 03-Jul-2020 12:20pm PDT
Mist, Few clouds
Mist, Few clouds
 Wind from SW
Wind: SW 5 mph , 7 km/h
Temperature: 55°F , 13°C
Dew Point: 52°F , 11°C
Humidity: 88%
Barometer: 30.08 inHg , 1018.6 hPa
Summary: Mist
Clouds: Few Clouds
Visibility: 6 miles , 10 km
Cloud details: Few Clouds 900 ft
2020/07/03 19:20 KHAF 031920Z AUTO 23004KT 6SM BR FEW009 13/11 A3008 RMK AO2
 
KLVK - Livermore, California, USA
Distance from station: NNE 31mi, 51km
Updated: Fri, 03-Jul-2020 11:53am PDT
Clear
Clear
 Wind from varies
Wind: varies 3 mph , 6 km/h
Temperature: 75°F , 24°C
Dew Point: 52°F , 11°C
Humidity: 44%
Barometer: 30.00 inHg , 1015.9 hPa
Clouds: Clear
Visibility: 10 miles , 16 km
2020/07/03 18:53 KLVK 031853Z VRB03KT 10SM CLR 24/11 A3000 RMK AO2 SLP156 T02390106
KOAK - Oakland, California, USA
Distance from station: NNW 33mi, 53km
Updated: Fri, 03-Jul-2020 11:53am PDT
Few Clouds
Few Clouds
 Wind from NW
Wind: NW 10 mph , 17 km/h
Temperature: 64°F , 18°C
Dew Point: 54°F , 12°C
Humidity: 68%
Barometer: 30.05 inHg , 1017.6 hPa
Clouds: Few Clouds
Visibility: 10 miles , 16 km
Cloud details: Few Clouds 1300 ft
2020/07/03 18:53 KOAK 031853Z 31009KT 10SM FEW013 18/12 A3005 RMK AO2 SLP174 T01830117
 
KCVH - Hollister Muni, California, USA
Distance from station: SE 42mi, 68km
Updated: Fri, 03-Jul-2020 12:20pm PDT
Clear
Clear
 Wind from varies
Wind: varies 3 mph , 6 km/h
Temperature: 75°F , 24°C
Dew Point: 52°F , 11°C
Humidity: 44%
Barometer: 30.03 inHg , 1016.9 hPa
Clouds: Clear
Visibility: 10 miles , 16 km
2020/07/03 19:20 KCVH 031920Z AUTO VRB03KT 10SM CLR 24/11 A3003 RMK A01
KSNS - Salinas, California, USA
Distance from station: SSE 48mi, 77km
Updated: Fri, 03-Jul-2020 11:53am PDT
Clear
Clear
 Wind from WNW
Wind: WNW 12 mph , 19 km/h
Temperature: 70°F , 21°C
Dew Point: 54°F , 12°C
Humidity: 57%
Barometer: 30.04 inHg , 1017.3 hPa
Clouds: Clear
Visibility: 9 miles , 14 km
2020/07/03 18:53 KSNS 031853Z 30010KT 9SM CLR 21/12 A3004 RMK AO2 SLP181 T02110122
 
KMRY - Monterey, California, USA
Distance from station: SSE 49mi, 78km
Updated: Fri, 03-Jul-2020 11:54am PDT
Clear
Clear
 Wind from NNW
Wind: NNW 10 mph , 17 km/h
Temperature: 64°F , 18°C
Dew Point: 54°F , 12°C
Humidity: 68%
Barometer: 30.06 inHg , 1017.9 hPa
Clouds: Clear
Visibility: 10 miles , 16 km
2020/07/03 18:54 KMRY 031854Z 33009KT 10SM CLR 18/12 A3006 RMK AO2 SLP189 T01780117
KCCR - Concord, California, USA
Distance from station: N 50mi, 81km
Updated: Fri, 03-Jul-2020 11:53am PDT
Clear
Clear
 Wind from WNW
Wind: WNW 13 mph , 20 km/h
Temperature: 72°F , 22°C
Dew Point: 52°F , 11°C
Humidity: 50%
Barometer: 30.00 inHg , 1015.9 hPa
Clouds: Clear
Visibility: 10 miles , 16 km
2020/07/03 18:53 KCCR 031853Z 29011KT 10SM CLR 22/11 A3000 RMK AO2 SLP146 T02220111
deformed-offering